Latest Weather Observations for Adelaide

IDS60801

Issued at 8:05 pm CST Friday 18 April 2014 (issued every 30 minutes, with the page automatically refreshed every 10 minutes)

About weather observations | Map of weather stations | Latest weather observations for SA | Other Formats
Station Details ID: 023090 Name: KENT TOWN Lat: -34.92 Lon: 138.62 Height: 48.0 m
Data from the previous 72 hours. | See also: Recent months at Adelaide
Date/Time
CST
Temp
°C
App
Temp
°C
Dew
Point
Rel
Hum
%
Delta-T
°C
Wind Press
QNH
hPa
Press
MSL
hPa
Rain
since 9 am
mm
Dir
 
Spd
km/h
Gust
km/h
Spd
kts
Gust
kts
18/08:00pm 12.8 10.5 5.8 62 3.3 SE 7 11 4 6 1023.6 - 0.0
18/07:30pm 13.5 11.5 6.1 61 3.5 SE 6 9 3 5 1023.4 - 0.0
18/07:00pm 14.2 11.9 5.7 56 4.0 ESE 7 11 4 6 1023.2 - 0.0
18/06:30pm 15.1 12.0 5.4 52 4.6 SSE 11 17 6 9 1022.9 - 0.0
18/06:00pm 15.8 12.3 5.3 49 5.0 SSE 13 19 7 10 1022.9 1022.9 0.0
18/05:30pm 16.6 12.8 5.8 49 5.2 SSE 15 22 8 12 1022.6 - 0.0
18/05:00pm 17.6 14.2 5.9 46 5.7 S 13 20 7 11 1022.2 - 0.0
18/04:30pm 18.0 14.2 5.7 44 6.0 S 15 26 8 14 1022.0 - 0.0
18/04:00pm 18.9 14.6 5.3 41 6.6 S 17 26 9 14 1021.7 - 0.0
18/03:30pm 20.0 15.6 6.7 42 6.7 WSW 19 24 10 13 1021.5 - 0.0
18/03:00pm 20.4 15.8 3.9 33 7.9 S 17 24 9 13 1021.4 1021.4 0.0
18/02:30pm 20.2 15.7 6.2 40 7.0 SSW 19 32 10 17 1021.3 - 0.0
18/02:00pm 20.1 15.5 6.3 40 6.9 WSW 20 33 11 18 1021.3 - 0.0
18/01:30pm 19.7 14.3 6.2 41 6.7 WSW 24 35 13 19 1021.1 - 0.0
18/01:00pm 20.1 15.7 7.6 44 6.4 WSW 20 33 11 18 1021.3 - 0.0
18/12:30pm 19.9 15.4 8.6 48 5.9 WSW 22 35 12 19 1021.5 - 0.0
18/12:00pm 20.3 16.4 9.6 50 5.7 SW 20 32 11 17 1021.8 1021.8 0.0
18/11:30am 19.6 16.2 9.1 50 5.5 SW 17 26 9 14 1021.9 - 0.0
18/11:00am 19.1 16.1 10.6 58 4.6 SW 17 26 9 14 1021.9 - 0.0
18/10:30am 18.6 15.6 10.8 60 4.2 S 17 26 9 14 1022.0 - 0.0
18/10:00am 18.3 15.3 11.9 66 3.5 S 19 28 10 15 1022.1 - 0.0
18/09:30am 17.6 15.5 13.7 78 2.2 SSW 17 24 9 13 1021.9 - 0.0
18/09:00am 16.7 16.1 14.6 87 1.2 SSW 11 20 6 11 1021.8 1021.8 1.6
18/08:30am 15.8 16.3 14.9 94 0.5 S 6 9 3 5 1021.4 - 1.6
18/08:00am 15.4 15.5 14.5 94 0.5 S 7 13 4 7 1020.9 - 1.6
18/07:30am 15.8 13.5 14.6 93 0.7 SSW 20 39 11 21 1020.8 - 1.4
18/07:00am 17.8 17.4 14.1 79 2.1 W 9 13 5 7 1020.0 - 0.0
18/06:30am 17.7 15.8 14.2 80 2.0 W 17 20 9 11 1019.9 - 0.0
18/06:00am 17.6 15.7 14.1 80 2.0 W 17 22 9 12 1019.9 1019.9 0.0
18/05:30am 17.4 15.8 13.9 80 2.0 W 15 22 8 12 1019.9 - 0.0
18/05:00am 17.2 16.0 13.9 81 1.9 W 13 20 7 11 1019.8 - 0.0
18/04:30am 16.9 16.0 13.7 81 1.8 W 11 20 6 11 1019.6 - 0.0
18/04:00am 17.0 14.9 13.6 80 1.9 W 17 20 9 11 1019.4 - 0.0
18/03:30am 17.4 15.3 13.7 79 2.1 W 17 24 9 13 1019.4 - 0.0
18/03:00am 17.4 15.3 13.5 78 2.2 W 17 28 9 15 1019.4 1019.4 0.0
18/02:30am 17.5 15.8 13.6 78 2.2 W 15 26 8 14 1019.4 - 0.0
18/02:00am 17.8 15.4 13.8 77 2.3 W 19 26 10 14 1019.4 - 0.0
18/01:30am 18.0 16.3 14.7 81 1.9 W 17 24 9 13 1019.5 - 0.0
18/01:00am 16.8 16.6 13.6 81 1.8 WNW 7 11 4 6 1019.3 - 0.0
18/12:30am 16.7 16.5 13.5 81 1.8 WNW 7 11 4 6 1019.3 - 0.0
18/12:00am 16.8 16.5 13.2 79 2.0 WNW 7 13 4 7 1019.5 1019.5 0.0
 
Date/Time
CST
Temp
°C
App
Temp
°C
Dew
Point
Rel
Hum
%
Delta-T
°C
Wind Press
QNH
hPa
Press
MSL
hPa
Rain
since 9 am
mm
Dir
 
Spd
km/h
Gust
km/h
Spd
kts
Gust
kts
17/11:30pm 17.1 16.6 12.8 76 2.4 WNW 7 11 4 6 1019.7 - 0.0
17/11:00pm 16.7 16.1 12.3 75 2.4 WNW 7 11 4 6 1020.0 - 0.0
17/10:30pm 15.7 16.4 12.2 80 1.9 CALM 0 0 0 0 1020.2 - 0.0
17/10:00pm 15.8 16.1 12.1 78 2.0 NE 2 7 1 4 1020.3 - 0.0
17/09:30pm 16.1 16.8 12.3 78 2.1 CALM 0 0 0 0 1020.2 - 0.0
17/09:00pm 16.6 17.2 12.0 74 2.5 CALM 0 0 0 0 1020.1 1020.1 0.0
17/08:30pm 17.0 17.7 12.3 74 2.6 CALM 0 0 0 0 1019.8 - 0.0
17/08:00pm 17.6 18.4 12.6 72 2.8 CALM 0 0 0 0 1019.5 - 0.0
17/07:30pm 18.1 19.1 13.3 73 2.7 CALM 0 0 0 0 1019.4 - 0.0
17/07:00pm 18.9 19.6 12.2 65 3.7 CALM 0 0 0 0 1019.4 - 0.0
17/06:30pm 19.7 20.2 11.7 60 4.4 CALM 0 0 0 0 1019.3 - 0.0
17/06:00pm 20.5 19.9 11.7 57 4.9 WNW 6 9 3 5 1019.4 1019.4 0.0
17/05:30pm 21.2 20.3 11.2 53 5.5 NW 7 9 4 5 1019.1 - 0.0
17/05:00pm 22.1 20.0 11.1 49 6.1 W 13 17 7 9 1019.2 - 0.0
17/04:30pm 23.0 20.4 10.7 45 6.8 WNW 15 19 8 10 1019.1 - 0.0
17/04:00pm 23.1 21.1 10.1 43 7.1 WNW 11 17 6 9 1019.1 - 0.0
17/03:30pm 23.5 21.5 10.2 43 7.3 NW 11 17 6 9 1019.3 - 0.0
17/03:00pm 23.6 21.2 9.9 42 7.5 W 13 17 7 9 1019.6 1019.6 0.0
17/02:30pm 23.1 21.2 9.1 41 7.5 NNW 9 17 5 9 1019.6 - 0.0
17/02:00pm 22.6 21.1 10.6 46 6.6 NNW 9 17 5 9 1020.0 - 0.0
17/01:30pm 23.2 22.5 12.1 49 6.3 WNW 7 15 4 8 1020.2 - 0.0
17/01:00pm 23.2 21.7 13.1 53 5.8 W 13 19 7 10 1020.6 - 0.0
17/12:30pm 22.0 20.9 13.1 57 5.1 W 11 19 6 10 1021.1 - 0.0
17/12:00pm 22.1 20.9 11.5 51 5.9 WSW 9 13 5 7 1021.6 1021.6 0.0
17/11:30am 21.5 20.6 12.5 56 5.1 NNW 9 15 5 8 1021.8 - 0.0
17/11:00am 20.1 20.0 13.4 65 3.8 SSW 6 9 3 5 1022.0 - 0.0
17/10:30am 20.5 19.9 13.5 64 4.0 NNW 9 19 5 10 1021.9 - 0.0
17/10:00am 20.2 19.9 13.4 65 3.9 NNW 7 13 4 7 1021.9 - 0.0
17/09:30am 18.8 19.0 14.3 75 2.6 N 6 11 3 6 1021.9 - 0.0
17/09:00am 17.6 16.9 13.1 75 2.5 NNE 9 13 5 7 1021.8 1021.8 0.0
17/08:30am 16.5 16.1 12.3 76 2.3 N 6 11 3 6 1021.7 - 0.0
17/08:00am 14.1 13.3 11.1 82 1.6 NNE 6 9 3 5 1021.6 - 0.0
17/07:30am 12.9 11.9 10.4 85 1.3 NNE 6 9 3 5 1021.5 - 0.0
17/07:00am 12.2 11.4 9.8 85 1.2 NNE 4 9 2 5 1021.3 - 0.0
17/06:30am 11.8 10.9 9.4 85 1.2 NNE 4 6 2 3 1021.0 - 0.0
17/06:00am 11.2 10.7 9.2 87 1.0 NE 2 6 1 3 1020.9 1020.9 0.0
17/05:30am 10.9 10.8 9.3 90 0.8 CALM 0 6 0 3 1020.8 - 0.0
17/05:00am 11.0 10.8 9.2 89 0.9 CALM 0 0 0 0 1020.6 - 0.0
17/04:30am 11.1 10.6 9.3 89 0.9 NE 2 6 1 3 1020.5 - 0.0
17/04:00am 11.4 9.9 9.0 85 1.2 ENE 7 7 4 4 1020.2 - 0.0
17/03:30am 11.4 11.2 9.0 85 1.2 CALM 0 0 0 0 1020.2 - 0.0
17/03:00am 11.4 11.1 8.8 84 1.3 CALM 0 0 0 0 1020.2 1020.2 0.0
17/02:30am 11.6 11.3 8.8 83 1.4 CALM 0 0 0 0 1020.4 - 0.0
17/02:00am 11.9 11.6 8.7 81 1.6 CALM 0 0 0 0 1020.5 - 0.0
17/01:30am 12.2 12.0 9.0 81 1.6 CALM 0 0 0 0 1020.7 - 0.0
17/01:00am 12.3 12.1 9.1 81 1.6 CALM 0 0 0 0 1020.6 - 0.0
17/12:30am 12.4 12.2 9.2 81 1.6 CALM 0 0 0 0 1020.5 - 0.0
17/12:00am 12.8 12.6 9.2 79 1.8 CALM 0 0 0 0 1020.6 1020.6 0.0
 
Date/Time
CST
Temp
°C
App
Temp
°C
Dew
Point
Rel
Hum
%
Delta-T
°C
Wind Press
QNH
hPa
Press
MSL
hPa
Rain
since 9 am
mm
Dir
 
Spd
km/h
Gust
km/h
Spd
kts
Gust
kts
16/11:30pm 12.9 12.7 9.1 78 1.9 CALM 0 0 0 0 1020.7 - 0.0
16/11:00pm 13.4 12.9 9.3 76 2.1 E 2 7 1 4 1020.8 - 0.0
16/10:30pm 13.5 13.3 9.2 75 2.2 CALM 0 0 0 0 1020.9 - 0.0
16/10:00pm 13.9 13.7 9.2 73 2.4 CALM 0 0 0 0 1020.7 - 0.0
16/09:30pm 14.4 14.2 9.1 70 2.7 CALM 0 2 0 1 1020.5 - 0.0
16/09:00pm 14.9 14.7 9.0 68 3.0 CALM 0 0 0 0 1020.5 1020.5 0.0
16/08:30pm 15.5 15.0 9.3 66 3.2 ESE 2 6 1 3 1020.5 - 0.0
16/08:00pm 16.0 15.7 8.8 62 3.7 CALM 0 0 0 0 1020.3 - 0.0
16/07:30pm 16.6 15.7 9.3 62 3.8 SE 4 7 2 4 1019.9 - 0.0
16/07:00pm 17.6 16.2 8.7 56 4.6 ESE 6 7 3 4 1019.8 - 0.0
16/06:30pm 18.1 18.0 9.3 56 4.6 CALM 0 0 0 0 1019.6 - 0.0
16/06:00pm 19.2 18.3 9.1 52 5.3 SW 4 7 2 4 1019.4 1019.4 0.0
16/05:30pm 20.4 19.0 8.8 47 6.1 SSW 6 9 3 5 1019.2 - 0.0
16/05:00pm 21.2 18.8 7.1 40 7.2 SW 9 15 5 8 1019.2 - 0.0
16/04:30pm 21.5 19.2 7.3 40 7.3 W 9 15 5 8 1019.1 - 0.0
16/04:00pm 22.4 19.6 6.8 36 8.0 W 11 19 6 10 1018.9 - 0.0
16/03:30pm 22.5 20.2 7.5 38 7.8 W 9 13 5 7 1018.9 - 0.0
16/03:00pm 23.3 19.4 5.4 31 9.0 WNW 15 22 8 12 1019.1 1019.1 0.0
16/02:30pm 23.3 19.6 6.3 33 8.7 W 15 22 8 12 1019.4 - 0.0
16/02:00pm 23.3 20.0 6.3 33 8.7 NW 13 24 7 13 1019.1 - 0.0
16/01:30pm 23.0 19.0 6.6 34 8.4 WSW 17 24 9 13 1019.2 - 0.0
16/01:00pm 22.9 19.2 6.5 34 8.4 WNW 15 24 8 13 1019.3 - 0.0
16/12:30pm 23.1 19.9 6.8 35 8.4 NW 13 24 7 13 1019.9 - 0.0
16/12:00pm 22.6 19.5 7.1 36 8.0 NW 13 22 7 12 1020.2 1020.2 0.0
16/11:30am 21.8 19.8 7.2 39 7.5 NW 7 15 4 8 1020.4 - 0.0
16/11:00am 21.1 18.6 8.0 43 6.8 WNW 11 20 6 11 1021.1 - 0.0
16/10:30am 20.8 18.0 8.6 45 6.4 WNW 13 19 7 10 1021.3 - 0.0
16/10:00am 20.1 17.6 8.4 47 6.1 NNW 11 17 6 9 1021.1 - 0.0
16/09:30am 18.2 16.3 9.2 55 4.7 N 9 15 5 8 1020.8 - 0.0
16/09:00am 17.2 15.7 9.3 59 4.1 N 7 11 4 6 1020.9 1020.9 0.0
16/08:30am 15.1 15.1 9.7 70 2.8 CALM 0 6 0 3 1021.2 - 0.0
16/08:00am 12.5 12.3 9.1 80 1.7 CALM 0 0 0 0 1021.2 - 0.0
16/07:30am 10.9 10.7 8.9 87 1.0 CALM 0 0 0 0 1020.7 - 0.0
16/07:00am 10.2 9.9 8.8 91 0.7 CALM 0 0 0 0 1020.7 - 0.0
16/06:30am 10.2 9.9 8.6 90 0.8 CALM 0 0 0 0 1020.9 - 0.0
16/06:00am 10.6 10.3 8.8 89 0.9 CALM 0 0 0 0 1020.6 1020.6 0.0
16/05:30am 10.9 10.7 8.9 87 1.0 CALM 0 0 0 0 1020.4 - 0.0
16/05:00am 11.2 9.8 9.0 86 1.1 ENE 6 7 3 4 1020.4 - 0.0
16/04:30am 11.0 10.4 8.8 86 1.1 N 2 6 1 3 1020.2 - 0.0
16/04:00am 11.1 10.9 8.9 86 1.1 CALM 0 0 0 0 1020.1 - 0.0
16/03:30am 11.5 10.2 9.1 85 1.2 NE 6 7 3 4 1020.1 - 0.0
16/03:00am 11.5 11.4 9.3 86 1.1 CALM 0 0 0 0 1020.6 1020.6 0.0
16/02:30am 11.6 11.4 9.0 84 1.3 CALM 0 0 0 0 1020.9 - 0.0
16/02:00am 12.0 11.9 9.4 84 1.3 CALM 0 0 0 0 1021.2 - 0.0
16/01:30am 12.4 11.5 9.4 82 1.5 ENE 4 7 2 4 1021.4 - 0.0
16/01:00am 13.0 11.8 9.5 79 1.8 E 6 7 3 4 1021.6 - 0.0
16/12:30am 13.0 12.5 9.5 79 1.8 E 2 9 1 5 1021.7 - 0.0
16/12:00am 13.6 13.6 9.7 77 2.0 CALM 0 6 0 3 1021.6 1021.6 0.0
 
Date/Time
CST
Temp
°C
App
Temp
°C
Dew
Point
Rel
Hum
%
Delta-T
°C
Wind Press
QNH
hPa
Press
MSL
hPa
Rain
since 9 am
mm
Dir
 
Spd
km/h
Gust
km/h
Spd
kts
Gust
kts
15/11:30pm 14.4 12.6 9.3 71 2.6 E 9 15 5 8 1021.8 - 0.0
15/11:00pm 13.9 13.8 9.4 74 2.3 CALM 0 0 0 0 1021.9 - 0.0
15/10:30pm 14.6 13.1 9.1 69 2.8 ESE 7 11 4 6 1022.0 - 0.0
15/10:00pm 15.2 13.7 8.5 64 3.4 SE 6 11 3 6 1022.4 - 0.0
15/09:30pm 15.1 13.6 9.0 67 3.1 ESE 7 11 4 6 1022.5 - 0.0
15/09:00pm 15.5 13.0 8.4 62 3.6 SE 11 17 6 9 1022.3 1022.3 0.0
15/08:30pm 15.9 13.3 7.9 59 4.0 SE 11 17 6 9 1022.1 - 0.0

Other Formats:

Comma delimited format used in spreadsheet applications
http://www.bom.gov.au/fwo/IDS60801/IDS60801.94675.axf

JavaScript Object Notation format (JSON) in row-major order
http://www.bom.gov.au/fwo/IDS60801/IDS60801.94675.json